Time;durP1;ratioP1;P1;durP2;ratioP2;P2;SDS_P1;SDS_P2;PMS_P1;PMS_P2;Temp;Humidity;BMP_temperature;BMP_pressure;BME280_temperature;BME280_humidity;BME280_pressure;Samples;Min_cycle;Max_cycle;Signal;HPM_P1;HPM_P2
2024/01/06 05:57:06;;;;;;;;;;;2.70;99.90;;;;;;5475689;23;20017;-72
2024/01/06 05:59:33;;;;;;;;;;;2.90;99.90;;;;;;4998977;28;19995;-73
2024/01/06 06:02:00;;;;;;;;;;;2.90;99.90;;;;;;4998021;28;20391;-73
2024/01/06 06:04:26;;;;;;;;;;;2.80;99.90;;;;;;4997993;28;20383;-73
2024/01/06 06:06:53;;;;;;;;;;;2.80;99.90;;;;;;5007672;28;19957;-72
2024/01/06 06:09:21;;;;;;;;;;;2.80;99.90;;;;;;5017523;28;20379;-72
2024/01/06 06:11:48;;;;;;;;;;;2.80;99.90;;;;;;5018318;28;19932;-72
2024/01/06 06:14:16;;;;;;;;;;;2.70;99.90;;;;;;5017746;28;19925;-72
2024/01/06 06:16:42;;;;;;;;;;;2.70;99.90;;;;;;5017534;28;19933;-72
2024/01/06 06:19:09;;;;;;;;;;;2.70;99.90;;;;;;5017627;28;19948;-72
2024/01/06 06:21:35;;;;;;;;;;;2.70;99.90;;;;;;5017357;28;19926;-72
2024/01/06 06:24:02;;;;;;;;;;;2.60;99.90;;;;;;5017853;28;19925;-72
2024/01/06 06:26:28;;;;;;;;;;;2.60;99.90;;;;;;5017158;28;19926;-72
2024/01/06 06:28:55;;;;;;;;;;;2.60;99.90;;;;;;5017195;28;19926;-72
2024/01/06 06:31:23;;;;;;;;;;;2.60;99.90;;;;;;5017427;28;20306;-72
2024/01/06 06:33:50;;;;;;;;;;;2.50;99.90;;;;;;5017123;28;20370;-72
2024/01/06 06:36:16;;;;;;;;;;;2.50;99.90;;;;;;5017170;28;19925;-73
2024/01/06 06:38:43;;;;;;;;;;;2.50;99.90;;;;;;5017184;28;19929;-73
2024/01/06 06:41:09;;;;;;;;;;;2.60;99.90;;;;;;5016897;28;20306;-73
2024/01/06 06:43:36;;;;;;;;;;;2.50;99.90;;;;;;5016878;28;20268;-72
2024/01/06 06:46:03;;;;;;;;;;;2.40;99.90;;;;;;5016735;28;20425;-72
2024/01/06 06:48:31;;;;;;;;;;;2.40;99.90;;;;;;5017080;28;19971;-72
2024/01/06 06:50:57;;;;;;;;;;;2.40;99.90;;;;;;5017505;28;19926;-72
2024/01/06 06:53:24;;;;;;;;;;;2.30;99.90;;;;;;5017151;28;19933;-72
2024/01/06 06:55:50;;;;;;;;;;;2.40;99.90;;;;;;5016866;28;19926;-72
2024/01/06 06:58:17;;;;;;;;;;;2.40;99.90;;;;;;5016442;28;19933;-72
2024/01/06 07:00:43;;;;;;;;;;;2.30;99.90;;;;;;5016867;28;20020;-72
2024/01/06 07:03:10;;;;;;;;;;;2.30;99.90;;;;;;5016854;28;19925;-72
2024/01/06 07:05:39;;;;;;;;;;;2.30;99.90;;;;;;5016774;28;19925;-72
2024/01/06 07:08:05;;;;;;;;;;;2.30;99.90;;;;;;5016682;28;19926;-72
2024/01/06 07:10:32;;;;;;;;;;;2.30;99.90;;;;;;5016822;28;19925;-72
2024/01/06 07:12:58;;;;;;;;;;;2.30;99.90;;;;;;5016862;28;19929;-72
2024/01/06 07:15:25;;;;;;;;;;;2.30;99.90;;;;;;5016695;28;19925;-72
2024/01/06 07:17:51;;;;;;;;;;;2.30;99.90;;;;;;5016479;28;19925;-72
2024/01/06 07:20:19;;;;;;;;;;;2.30;99.90;;;;;;5016918;28;19926;-72
2024/01/06 07:22:46;;;;;;;;;;;2.30;99.90;;;;;;5016788;28;19932;-72
2024/01/06 07:25:13;;;;;;;;;;;2.30;99.90;;;;;;5016762;28;19933;-71
2024/01/06 07:27:40;;;;;;;;;;;2.30;99.90;;;;;;5016530;28;19925;-71
2024/01/06 07:30:07;;;;;;;;;;;2.30;99.90;;;;;;5016429;28;19925;-71
2024/01/06 07:32:34;;;;;;;;;;;2.30;99.90;;;;;;5016395;28;19953;-71
2024/01/06 07:35:02;;;;;;;;;;;2.30;99.90;;;;;;5016304;28;19937;-71
2024/01/06 07:37:28;;;;;;;;;;;2.30;99.90;;;;;;5016251;28;20004;-70
2024/01/06 07:39:56;;;;;;;;;;;2.30;99.90;;;;;;5016036;28;20382;-70
2024/01/06 07:42:23;;;;;;;;;;;2.30;99.90;;;;;;5016237;28;19926;-71
2024/01/06 07:44:49;;;;;;;;;;;2.30;99.90;;;;;;5016176;28;19932;-71
2024/01/06 07:47:16;;;;;;;;;;;2.30;99.90;;;;;;5016080;28;19926;-71
2024/01/06 07:49:42;;;;;;;;;;;2.30;99.90;;;;;;5016120;28;19948;-71
2024/01/06 07:52:09;;;;;;;;;;;2.30;99.90;;;;;;5016120;28;19934;-71
2024/01/06 07:54:35;;;;;;;;;;;2.40;99.90;;;;;;5015867;28;20378;-72
2024/01/06 07:57:03;;;;;;;;;;;2.40;99.90;;;;;;5015954;28;19926;-71
2024/01/06 07:59:30;;;;;;;;;;;2.40;99.90;;;;;;5015682;28;19932;-72
2024/01/06 08:01:57;;;;;;;;;;;2.40;99.90;;;;;;5015864;28;19925;-72
2024/01/06 08:04:23;;;;;;;;;;;2.40;99.90;;;;;;5015781;28;19925;-71
2024/01/06 08:06:50;;;;;;;;;;;2.50;99.90;;;;;;5015814;28;19925;-72
2024/01/06 08:09:16;;;;;;;;;;;2.50;99.90;;;;;;5015676;28;19925;-71
2024/01/06 08:11:45;;;;;;;;;;;2.50;99.90;;;;;;5015483;28;19925;-72
2024/01/06 08:14:13;;;;;;;;;;;2.50;99.90;;;;;;5015576;28;19925;-72
2024/01/06 08:16:40;;;;;;;;;;;2.50;99.90;;;;;;5015459;28;19948;-72
2024/01/06 08:19:06;;;;;;;;;;;2.60;99.90;;;;;;5015493;28;20263;-72
2024/01/06 08:21:34;;;;;;;;;;;2.60;99.90;;;;;;5015108;28;19930;-71
2024/01/06 08:24:00;;;;;;;;;;;2.60;99.90;;;;;;5015508;28;19960;-72
2024/01/06 08:26:27;;;;;;;;;;;2.70;99.90;;;;;;5015768;28;19937;-73
2024/01/06 08:28:54;;;;;;;;;;;2.80;99.90;;;;;;5014952;28;19933;-72
2024/01/06 08:31:22;;;;;;;;;;;2.80;99.90;;;;;;5015388;28;19926;-72
2024/01/06 08:33:49;;;;;;;;;;;2.80;99.90;;;;;;5015395;28;19933;-72
2024/01/06 08:36:16;;;;;;;;;;;2.90;99.90;;;;;;5015686;28;19925;-73
2024/01/06 08:38:42;;;;;;;;;;;2.90;99.90;;;;;;5015000;28;19932;-72
2024/01/06 08:41:09;;;;;;;;;;;3.00;99.90;;;;;;5015082;28;19932;-73
2024/01/06 08:43:35;;;;;;;;;;;3.00;99.90;;;;;;5015070;28;19925;-74
2024/01/06 08:46:02;;;;;;;;;;;3.10;99.90;;;;;;5014539;28;20302;-73
2024/01/06 08:48:30;;;;;;;;;;;3.20;99.90;;;;;;5014898;28;20012;-74
2024/01/06 08:50:56;;;;;;;;;;;3.30;99.90;;;;;;5014919;28;19926;-73
2024/01/06 08:53:23;;;;;;;;;;;3.30;99.90;;;;;;5014836;28;19932;-73
2024/01/06 08:55:49;;;;;;;;;;;3.40;99.90;;;;;;5014714;28;19925;-74
2024/01/06 08:58:17;;;;;;;;;;;3.40;99.90;;;;;;5014434;28;19926;-73
2024/01/06 09:00:43;;;;;;;;;;;3.50;99.90;;;;;;5014688;28;19930;-73
2024/01/06 09:03:12;;;;;;;;;;;3.70;99.90;;;;;;5014899;28;19925;-73
2024/01/06 09:05:40;;;;;;;;;;;3.90;99.90;;;;;;5014479;28;20394;-73
2024/01/06 09:08:07;;;;;;;;;;;4.00;99.90;;;;;;5014199;28;20413;-73
2024/01/06 09:10:33;;;;;;;;;;;4.10;99.90;;;;;;5014540;28;19925;-74
2024/01/06 09:13:01;;;;;;;;;;;4.20;99.90;;;;;;5016849;28;19925;-73
2024/01/06 09:15:28;;;;;;;;;;;4.20;99.90;;;;;;5015971;28;20020;-73
2024/01/06 09:17:55;;;;;;;;;;;4.30;99.90;;;;;;5015196;28;19980;-73
2024/01/06 09:20:23;;;;;;;;;;;4.30;99.90;;;;;;5014497;28;19925;-73
2024/01/06 09:22:51;;;;;;;;;;;4.30;99.90;;;;;;5014682;28;19932;-73
2024/01/06 09:25:18;;;;;;;;;;;4.30;99.90;;;;;;5014823;28;19926;-73
2024/01/06 09:27:47;;;;;;;;;;;4.20;99.90;;;;;;5015404;28;19937;-74
2024/01/06 09:30:14;;;;;;;;;;;4.30;99.90;;;;;;5015339;28;19948;-74
2024/01/06 09:32:41;;;;;;;;;;;4.30;99.90;;;;;;5015467;28;19926;-74
2024/01/06 09:35:08;;;;;;;;;;;4.30;99.90;;;;;;5015647;28;20049;-74
2024/01/06 09:37:34;;;;;;;;;;;4.30;99.90;;;;;;5015146;28;20024;-74
2024/01/06 09:40:02;;;;;;;;;;;4.30;99.90;;;;;;5015524;28;19979;-73
2024/01/06 09:42:29;;;;;;;;;;;4.20;99.90;;;;;;5015395;28;20375;-74
2024/01/06 09:44:56;;;;;;;;;;;4.20;99.90;;;;;;5014988;28;19988;-73
2024/01/06 09:47:23;;;;;;;;;;;4.10;99.90;;;;;;5014761;28;19926;-74
2024/01/06 09:49:51;;;;;;;;;;;4.20;99.90;;;;;;5015005;28;20012;-73
2024/01/06 09:52:23;;;;;;;;;;;4.20;99.90;;;;;;5015271;28;19930;-73
2024/01/06 09:54:52;;;;;;;;;;;4.20;99.90;;;;;;5014914;28;19925;-73
2024/01/06 09:57:20;;;;;;;;;;;4.20;99.90;;;;;;5014333;28;19934;-73
2024/01/06 09:59:47;;;;;;;;;;;4.30;99.90;;;;;;5014940;28;20298;-73
2024/01/06 10:02:15;;;;;;;;;;;4.40;99.90;;;;;;5014768;28;19932;-73
2024/01/06 10:04:43;;;;;;;;;;;4.40;99.90;;;;;;5014977;28;19925;-73
2024/01/06 10:07:12;;;;;;;;;;;4.50;99.90;;;;;;5014977;28;19932;-73
2024/01/06 10:09:39;;;;;;;;;;;4.50;99.90;;;;;;5014189;28;19926;-74
2024/01/06 10:12:06;;;;;;;;;;;4.60;99.90;;;;;;5013998;28;20057;-74
2024/01/06 10:14:33;;;;;;;;;;;4.60;99.90;;;;;;5015350;28;19948;-74
2024/01/06 10:17:00;;;;;;;;;;;4.60;99.90;;;;;;5013610;28;20284;-74
2024/01/06 10:19:27;;;;;;;;;;;4.60;99.90;;;;;;5013595;28;20298;-74
2024/01/06 10:21:53;;;;;;;;;;;4.60;99.90;;;;;;5013880;28;20001;-74
2024/01/06 10:24:20;;;;;;;;;;;4.60;99.90;;;;;;5013897;28;19925;-74
2024/01/06 10:26:46;;;;;;;;;;;4.50;99.90;;;;;;5013586;28;20354;-73
2024/01/06 10:29:14;;;;;;;;;;;4.50;99.90;;;;;;5013782;28;19929;-73
2024/01/06 10:31:41;;;;;;;;;;;4.50;99.90;;;;;;5013674;28;19925;-74
2024/01/06 10:34:08;;;;;;;;;;;4.50;99.90;;;;;;5015948;28;19925;-74
2024/01/06 10:36:36;;;;;;;;;;;4.40;99.90;;;;;;5017346;28;19929;-73
2024/01/06 10:39:03;;;;;;;;;;;4.50;99.90;;;;;;5018041;28;19933;-74
2024/01/06 10:41:31;;;;;;;;;;;4.50;99.90;;;;;;5017271;28;19926;-73
2024/01/06 10:44:01;;;;;;;;;;;4.50;99.90;;;;;;5017337;28;19942;-73
2024/01/06 10:46:28;;;;;;;;;;;4.40;99.90;;;;;;5017725;28;19925;-73
2024/01/06 10:48:58;;;;;;;;;;;4.40;99.90;;;;;;5017751;28;19932;-74
2024/01/06 10:51:26;;;;;;;;;;;4.40;99.90;;;;;;5017742;28;19932;-74
2024/01/06 10:53:52;;;;;;;;;;;4.40;99.90;;;;;;5017333;28;19941;-74
2024/01/06 10:56:20;;;;;;;;;;;4.40;99.90;;;;;;5017312;28;19925;-72
2024/01/06 10:58:48;;;;;;;;;;;4.50;99.90;;;;;;5016823;28;20392;-74
2024/01/06 11:01:15;;;;;;;;;;;4.50;99.90;;;;;;5016898;28;19976;-73
2024/01/06 11:03:42;;;;;;;;;;;4.40;99.90;;;;;;5017119;28;19933;-75
2024/01/06 11:06:11;;;;;;;;;;;4.40;99.90;;;;;;5016713;28;20310;-73
2024/01/06 11:08:49;;;;;;;;;;;4.40;99.90;;;;;;5017706;28;20361;-73
2024/01/06 11:11:16;;;;;;;;;;;4.50;99.90;;;;;;5018144;28;20359;-72
2024/01/06 11:13:45;;;;;;;;;;;4.50;99.90;;;;;;5018138;28;20432;-73
2024/01/06 11:16:14;;;;;;;;;;;4.50;99.90;;;;;;5017998;28;19933;-73
2024/01/06 11:18:42;;;;;;;;;;;4.60;99.90;;;;;;5018113;28;19933;-73
2024/01/06 11:21:18;;;;;;;;;;;4.60;99.90;;;;;;5017464;28;20016;-73
2024/01/06 11:23:46;;;;;;;;;;;4.70;99.90;;;;;;5016880;28;19973;-73
2024/01/06 11:26:14;;;;;;;;;;;4.80;99.90;;;;;;5016684;28;19926;-74
2024/01/06 11:28:44;;;;;;;;;;;4.80;99.90;;;;;;5019091;28;19925;-74
2024/01/06 11:31:11;;;;;;;;;;;4.90;99.90;;;;;;5027765;28;19925;-73
2024/01/06 11:33:41;;;;;;;;;;;5.00;99.90;;;;;;5029035;28;19931;-73
2024/01/06 11:36:09;;;;;;;;;;;5.00;99.90;;;;;;5020373;28;19925;-73
2024/01/06 11:38:39;;;;;;;;;;;5.10;99.90;;;;;;5016343;28;19926;-72
2024/01/06 11:41:07;;;;;;;;;;;5.00;99.90;;;;;;5016697;28;19991;-72
2024/01/06 11:43:34;;;;;;;;;;;5.00;99.90;;;;;;5016516;28;19925;-73
2024/01/06 11:46:02;;;;;;;;;;;5.00;99.90;;;;;;5015174;28;19929;-73
2024/01/06 11:48:31;;;;;;;;;;;5.00;99.90;;;;;;5016085;28;20382;-73
2024/01/06 11:50:58;;;;;;;;;;;5.00;99.90;;;;;;5016059;28;19930;-75
2024/01/06 11:53:27;;;;;;;;;;;5.00;99.90;;;;;;5015887;28;20336;-74
2024/01/06 11:55:55;;;;;;;;;;;5.10;99.90;;;;;;5016202;28;19926;-72
2024/01/06 11:58:22;;;;;;;;;;;5.10;99.90;;;;;;5017335;28;20048;-75
2024/01/06 12:00:56;;;;;;;;;;;5.00;99.90;;;;;;5017543;28;20025;-75
2024/01/06 12:03:23;;;;;;;;;;;4.90;99.90;;;;;;5017430;28;19926;-74
2024/01/06 12:06:00;;;;;;;;;;;4.80;99.90;;;;;;5017196;28;19925;-72
2024/01/06 12:08:29;;;;;;;;;;;4.80;99.90;;;;;;5016263;28;20121;-72
2024/01/06 12:11:04;;;;;;;;;;;4.80;99.90;;;;;;5018066;28;20344;-72
2024/01/06 12:13:31;;;;;;;;;;;4.80;99.90;;;;;;5016367;28;19932;-73
2024/01/06 12:15:57;;;;;;;;;;;4.70;99.90;;;;;;5016908;28;19951;-72
2024/01/06 12:18:26;;;;;;;;;;;4.70;99.90;;;;;;5017259;28;19926;-72
2024/01/06 12:20:52;;;;;;;;;;;4.60;99.90;;;;;;5016863;28;20291;-72
2024/01/06 12:23:25;;;;;;;;;;;4.50;99.90;;;;;;5016752;28;19964;-70
2024/01/06 12:25:53;;;;;;;;;;;4.40;99.90;;;;;;5016376;28;19952;-73
2024/01/06 12:28:24;;;;;;;;;;;4.40;99.90;;;;;;5016581;28;19980;-72
2024/01/06 12:30:52;;;;;;;;;;;4.30;99.90;;;;;;5016649;28;19929;-72
2024/01/06 12:33:19;;;;;;;;;;;4.30;99.90;;;;;;5015705;28;19925;-72
2024/01/06 12:35:45;;;;;;;;;;;4.20;99.90;;;;;;5015766;28;20030;-71
2024/01/06 12:38:12;;;;;;;;;;;4.10;99.90;;;;;;5015602;28;20017;-70
2024/01/06 12:40:40;;;;;;;;;;;4.00;99.90;;;;;;5015420;28;19961;-71
2024/01/06 12:43:07;;;;;;;;;;;4.00;99.90;;;;;;5016203;28;19997;-71
2024/01/06 12:45:36;;;;;;;;;;;4.10;99.90;;;;;;5016230;28;19925;-70
2024/01/06 12:48:03;;;;;;;;;;;4.00;99.90;;;;;;5015863;28;19948;-70
2024/01/06 12:50:29;;;;;;;;;;;4.00;99.90;;;;;;5016824;28;19925;-70
2024/01/06 12:52:56;;;;;;;;;;;3.90;99.90;;;;;;5016248;28;19945;-71
2024/01/06 12:55:23;;;;;;;;;;;3.90;99.90;;;;;;5016734;28;19932;-71
2024/01/06 12:57:50;;;;;;;;;;;3.90;99.90;;;;;;5015840;28;19968;-72
2024/01/06 13:00:17;;;;;;;;;;;3.90;99.90;;;;;;5016315;28;19925;-71
2024/01/06 13:02:45;;;;;;;;;;;3.90;99.90;;;;;;5017223;28;19932;-71
2024/01/06 13:05:12;;;;;;;;;;;3.90;99.90;;;;;;5016548;28;20375;-70
2024/01/06 13:07:39;;;;;;;;;;;3.90;99.90;;;;;;5016196;28;19925;-71
2024/01/06 13:10:06;;;;;;;;;;;4.00;99.90;;;;;;5016674;28;19925;-72
2024/01/06 13:12:33;;;;;;;;;;;4.00;99.90;;;;;;5015729;28;19926;-71
2024/01/06 13:15:00;;;;;;;;;;;3.90;99.90;;;;;;5015495;28;19925;-71
2024/01/06 13:17:27;;;;;;;;;;;3.80;99.90;;;;;;5015485;28;19926;-71
2024/01/06 13:19:56;;;;;;;;;;;3.80;99.90;;;;;;5014313;28;19925;-71
2024/01/06 13:22:22;;;;;;;;;;;3.80;99.90;;;;;;5014390;28;19926;-71
2024/01/06 13:24:49;;;;;;;;;;;3.80;99.90;;;;;;5014498;28;19929;-71
2024/01/06 13:27:15;;;;;;;;;;;3.80;99.90;;;;;;5014064;28;20306;-72
2024/01/06 13:29:42;;;;;;;;;;;3.80;99.90;;;;;;5013896;28;20386;-71
2024/01/06 13:32:10;;;;;;;;;;;3.70;99.90;;;;;;5014281;28;19933;-71
2024/01/06 13:34:38;;;;;;;;;;;3.70;99.90;;;;;;5014199;28;20341;-71
2024/01/06 13:37:06;;;;;;;;;;;3.70;99.90;;;;;;5013878;28;19932;-72
2024/01/06 13:39:33;;;;;;;;;;;3.80;99.90;;;;;;5014208;28;20016;-72
2024/01/06 13:42:00;;;;;;;;;;;3.80;99.90;;;;;;5014085;28;19925;-72
2024/01/06 13:44:26;;;;;;;;;;;3.80;99.90;;;;;;5028138;23;19933;-72
2024/01/06 13:46:54;;;;;;;;;;;3.80;99.90;;;;;;4994572;28;20413;-71
2024/01/06 13:49:21;;;;;;;;;;;3.80;99.90;;;;;;4994633;28;19930;-71
2024/01/06 13:51:47;;;;;;;;;;;3.80;99.90;;;;;;4994231;28;20379;-71
2024/01/06 13:54:15;;;;;;;;;;;3.70;99.90;;;;;;5003204;28;19949;-71
2024/01/06 13:56:42;;;;;;;;;;;3.70;99.90;;;;;;5014172;28;19925;-72
2024/01/06 13:59:09;;;;;;;;;;;3.80;99.90;;;;;;5014129;28;19932;-72
2024/01/06 14:01:35;;;;;;;;;;;3.70;99.90;;;;;;5014163;28;19975;-72
2024/01/06 14:04:02;;;;;;;;;;;3.70;99.90;;;;;;5014055;28;19926;-71
2024/01/06 14:06:29;;;;;;;;;;;3.70;99.90;;;;;;5014176;28;19958;-72
2024/01/06 14:08:56;;;;;;;;;;;3.70;99.90;;;;;;5016073;28;19925;-72
2024/01/06 14:11:25;;;;;;;;;;;3.60;99.90;;;;;;5017961;28;19926;-72
2024/01/06 14:13:52;;;;;;;;;;;3.70;99.90;;;;;;5017828;28;19977;-72
2024/01/06 14:16:18;;;;;;;;;;;3.60;99.90;;;;;;5018105;28;19926;-71
2024/01/06 14:18:45;;;;;;;;;;;3.60;99.90;;;;;;5017799;28;19932;-71
2024/01/06 14:21:14;;;;;;;;;;;3.60;99.90;;;;;;5017600;28;19932;-72
2024/01/06 14:23:41;;;;;;;;;;;3.60;99.90;;;;;;5017569;28;19925;-72
2024/01/06 14:26:07;;;;;;;;;;;3.60;99.90;;;;;;5017671;28;19926;-72
2024/01/06 14:28:35;;;;;;;;;;;3.50;99.90;;;;;;5017451;28;19929;-72
2024/01/06 14:31:02;;;;;;;;;;;3.40;99.90;;;;;;5017237;28;20276;-71
2024/01/06 14:33:28;;;;;;;;;;;3.50;99.90;;;;;;5017390;28;19925;-71
2024/01/06 14:35:55;;;;;;;;;;;3.40;99.90;;;;;;5017174;28;20361;-67
2024/01/06 14:38:22;;;;;;;;;;;3.40;99.90;;;;;;5017477;28;19932;-73
2024/01/06 14:40:48;;;;;;;;;;;3.30;99.90;;;;;;5017400;28;19925;-73
2024/01/06 14:43:15;;;;;;;;;;;3.30;99.90;;;;;;5017152;28;19925;-73
2024/01/06 14:45:43;;;;;;;;;;;3.40;99.90;;;;;;5016967;28;20252;-73
2024/01/06 14:48:10;;;;;;;;;;;3.30;99.90;;;;;;5017241;28;19925;-73
2024/01/06 14:50:36;;;;;;;;;;;3.30;99.90;;;;;;5016811;28;19925;-72
2024/01/06 14:53:03;;;;;;;;;;;3.40;99.90;;;;;;5016915;28;20310;-73
2024/01/06 14:55:30;;;;;;;;;;;3.40;99.90;;;;;;5017015;28;19972;-73
2024/01/06 14:57:56;;;;;;;;;;;3.40;99.90;;;;;;5017006;28;19925;-72
2024/01/06 15:00:25;;;;;;;;;;;3.30;99.90;;;;;;5016910;28;19925;-72
2024/01/06 15:02:53;;;;;;;;;;;3.30;99.90;;;;;;5016903;28;19995;-71
2024/01/06 15:05:19;;;;;;;;;;;3.30;99.90;;;;;;5016810;28;19933;-71
2024/01/06 15:07:46;;;;;;;;;;;3.20;99.90;;;;;;5016890;28;19933;-72
2024/01/06 15:10:13;;;;;;;;;;;3.20;99.90;;;;;;5017938;28;19925;-72
2024/01/06 15:12:40;;;;;;;;;;;3.20;99.90;;;;;;5018057;28;19979;-71
2024/01/06 15:15:08;;;;;;;;;;;3.20;99.90;;;;;;5017782;28;19932;-72
2024/01/06 15:17:35;;;;;;;;;;;3.20;99.90;;;;;;5018078;28;19933;-72
2024/01/06 15:20:03;;;;;;;;;;;3.20;99.90;;;;;;5017252;28;19936;-72
2024/01/06 15:22:29;;;;;;;;;;;3.30;99.90;;;;;;5017365;28;19927;-72
2024/01/06 15:24:56;;;;;;;;;;;3.20;99.90;;;;;;5016872;28;20399;-70
2024/01/06 15:27:22;;;;;;;;;;;3.10;99.90;;;;;;5017329;28;20302;-72
2024/01/06 15:29:49;;;;;;;;;;;3.10;99.90;;;;;;5018387;28;19925;-71
2024/01/06 15:32:15;;;;;;;;;;;3.10;99.90;;;;;;5018131;28;20284;-72
2024/01/06 15:34:42;;;;;;;;;;;3.10;99.90;;;;;;5017883;28;19926;-71
2024/01/06 15:37:10;;;;;;;;;;;3.10;99.90;;;;;;5017482;28;19932;-72
2024/01/06 15:39:36;;;;;;;;;;;3.10;99.90;;;;;;5016545;28;19925;-74
2024/01/06 15:42:03;;;;;;;;;;;3.10;99.90;;;;;;5016577;28;19926;-73
2024/01/06 15:44:32;;;;;;;;;;;3.00;99.90;;;;;;5016280;28;19932;-73
2024/01/06 15:46:58;;;;;;;;;;;3.00;99.90;;;;;;5016145;28;20375;-73
2024/01/06 15:49:26;;;;;;;;;;;3.00;99.90;;;;;;5016172;28;19952;-73
2024/01/06 15:51:53;;;;;;;;;;;3.00;99.90;;;;;;5016088;28;19969;-73
2024/01/06 15:54:21;;;;;;;;;;;3.00;99.90;;;;;;5015997;28;20272;-73
2024/01/06 15:56:47;;;;;;;;;;;3.10;99.90;;;;;;5021374;28;19925;-73
2024/01/06 15:59:15;;;;;;;;;;;3.10;99.90;;;;;;5025758;28;19936;-72
2024/01/06 16:01:41;;;;;;;;;;;3.10;99.90;;;;;;5016925;28;19933;-72
2024/01/06 16:04:08;;;;;;;;;;;3.10;99.90;;;;;;5017709;28;19932;-72
2024/01/06 16:06:34;;;;;;;;;;;3.10;99.90;;;;;;5016530;28;19937;-73
2024/01/06 16:09:01;;;;;;;;;;;3.10;99.90;;;;;;5016927;28;19929;-72
2024/01/06 16:11:29;;;;;;;;;;;3.10;99.90;;;;;;5016080;28;19926;-73
2024/01/06 16:13:55;;;;;;;;;;;3.10;99.90;;;;;;5015743;28;19926;-73
2024/01/06 16:16:22;;;;;;;;;;;3.10;99.90;;;;;;5015928;28;19926;-73
2024/01/06 16:18:49;;;;;;;;;;;3.10;99.90;;;;;;5015827;28;19932;-73
2024/01/06 16:21:21;;;;;;;;;;;3.20;99.90;;;;;;5015640;28;20306;-73
2024/01/06 16:23:48;;;;;;;;;;;3.20;99.90;;;;;;5015650;28;19949;-73
2024/01/06 16:26:14;;;;;;;;;;;3.10;99.90;;;;;;5015460;28;19933;-73
2024/01/06 16:28:42;;;;;;;;;;;3.10;99.90;;;;;;5015445;28;19925;-74
2024/01/06 16:31:09;;;;;;;;;;;3.10;99.90;;;;;;5015872;28;19949;-73
2024/01/06 16:33:35;;;;;;;;;;;3.10;99.90;;;;;;5015390;28;19925;-73
2024/01/06 16:36:02;;;;;;;;;;;3.10;99.90;;;;;;5015472;28;19926;-75
2024/01/06 16:38:30;;;;;;;;;;;3.10;99.90;;;;;;5016075;28;19976;-73
2024/01/06 16:40:56;;;;;;;;;;;3.10;99.90;;;;;;5015344;28;19978;-74
2024/01/06 16:43:23;;;;;;;;;;;3.00;99.90;;;;;;5015641;28;20310;-74
2024/01/06 16:45:51;;;;;;;;;;;3.10;99.90;;;;;;5016736;28;19925;-74
2024/01/06 16:48:18;;;;;;;;;;;3.10;99.90;;;;;;5016717;28;19925;-74
2024/01/06 16:50:46;;;;;;;;;;;3.10;99.90;;;;;;5016416;28;19948;-73
2024/01/06 16:53:13;;;;;;;;;;;3.00;99.90;;;;;;5016244;28;19925;-74
2024/01/06 16:55:40;;;;;;;;;;;3.00;99.90;;;;;;5015568;28;20406;-73
2024/01/06 16:58:06;;;;;;;;;;;3.00;99.90;;;;;;5015885;28;19930;-73
2024/01/06 17:00:33;;;;;;;;;;;3.00;99.90;;;;;;5016287;28;20286;-73
2024/01/06 17:03:01;;;;;;;;;;;3.00;99.90;;;;;;5015822;28;19929;-74
2024/01/06 17:05:27;;;;;;;;;;;3.00;99.90;;;;;;5016974;28;19933;-75
2024/01/06 17:07:54;;;;;;;;;;;3.00;99.90;;;;;;5015704;28;19933;-74
2024/01/06 17:10:21;;;;;;;;;;;3.00;99.90;;;;;;5015634;28;19968;-74
2024/01/06 17:12:48;;;;;;;;;;;3.00;99.90;;;;;;5015799;28;19925;-74
2024/01/06 17:15:15;;;;;;;;;;;3.00;99.90;;;;;;5015350;28;20379;-74
2024/01/06 17:17:42;;;;;;;;;;;3.10;99.90;;;;;;5015807;28;20299;-75
2024/01/06 17:20:11;;;;;;;;;;;3.00;99.90;;;;;;5016156;28;19975;-74
2024/01/06 17:22:38;;;;;;;;;;;2.90;99.90;;;;;;5014727;28;19925;-73
2024/01/06 17:25:08;;;;;;;;;;;2.90;99.90;;;;;;5014413;28;20405;-75
2024/01/06 17:27:34;;;;;;;;;;;2.90;99.90;;;;;;5014796;28;20349;-75
2024/01/06 17:30:01;;;;;;;;;;;2.90;99.90;;;;;;5014882;28;19969;-75
2024/01/06 17:32:27;;;;;;;;;;;2.90;99.90;;;;;;5014731;28;19925;-74
2024/01/06 17:34:54;;;;;;;;;;;2.90;99.90;;;;;;5015258;28;19926;-73
2024/01/06 17:37:22;;;;;;;;;;;2.80;99.90;;;;;;5014781;28;19925;-74
2024/01/06 17:39:49;;;;;;;;;;;2.90;99.90;;;;;;5016213;28;19932;-75
2024/01/06 17:42:15;;;;;;;;;;;2.90;99.90;;;;;;5016710;28;20409;-74
2024/01/06 17:44:44;;;;;;;;;;;2.90;99.90;;;;;;5016520;28;19926;-73
2024/01/06 17:47:11;;;;;;;;;;;2.90;99.90;;;;;;5016267;28;19933;-74
2024/01/06 17:49:38;;;;;;;;;;;2.90;99.90;;;;;;5016163;28;20386;-73
2024/01/06 17:52:04;;;;;;;;;;;2.90;99.90;;;;;;5016366;28;19925;-73
2024/01/06 17:54:32;;;;;;;;;;;2.80;99.90;;;;;;5016332;28;19931;-73
2024/01/06 17:56:59;;;;;;;;;;;2.80;99.90;;;;;;5015933;28;20405;-74
2024/01/06 18:43:48;;;;;;;;;;;2.70;99.90;;;;;;5810780;23;19932;-76
2024/01/06 18:46:16;;;;;;;;;;;2.70;99.90;;;;;;4994307;28;19926;-76
2024/01/06 18:48:43;;;;;;;;;;;2.70;99.90;;;;;;4994152;28;19933;-76
2024/01/06 18:51:10;;;;;;;;;;;2.60;99.90;;;;;;4995463;28;19949;-75
2024/01/06 18:53:36;;;;;;;;;;;2.60;99.90;;;;;;5003469;28;19926;-75
2024/01/06 18:56:03;;;;;;;;;;;2.60;99.90;;;;;;5020828;28;19926;-75
2024/01/06 18:58:30;;;;;;;;;;;2.60;99.90;;;;;;5021682;28;19925;-75
2024/01/06 19:00:56;;;;;;;;;;;2.60;99.90;;;;;;5018901;28;19925;-75
2024/01/06 19:03:24;;;;;;;;;;;2.60;99.90;;;;;;5019553;28;19956;-75
2024/01/06 19:05:51;;;;;;;;;;;2.60;99.90;;;;;;5018490;28;19925;-75
2024/01/06 19:08:17;;;;;;;;;;;2.60;99.90;;;;;;5019313;28;19925;-75
2024/01/06 19:10:44;;;;;;;;;;;2.60;99.90;;;;;;5019378;28;19933;-76
2024/01/06 19:13:11;;;;;;;;;;;2.60;99.90;;;;;;5018506;28;20386;-75
2024/01/06 19:15:38;;;;;;;;;;;2.60;99.90;;;;;;5019278;28;19976;-75
2024/01/06 19:18:05;;;;;;;;;;;2.60;99.90;;;;;;5018818;28;19933;-75
2024/01/06 19:20:33;;;;;;;;;;;2.50;99.90;;;;;;5018262;28;19929;-74
2024/01/06 19:23:00;;;;;;;;;;;2.50;99.90;;;;;;5018266;28;19933;-76
2024/01/06 19:25:26;;;;;;;;;;;2.50;99.90;;;;;;5018320;28;20440;-76
2024/01/06 19:27:53;;;;;;;;;;;2.50;99.90;;;;;;5017953;28;19968;-76
2024/01/06 19:30:19;;;;;;;;;;;2.60;99.90;;;;;;5017890;28;19925;-76
2024/01/06 19:32:46;;;;;;;;;;;2.50;99.90;;;;;;5017778;28;19932;-74
2024/01/06 19:35:13;;;;;;;;;;;2.50;99.90;;;;;;5017425;28;19925;-75
2024/01/06 19:37:41;;;;;;;;;;;2.50;99.90;;;;;;5017509;28;19925;-75
2024/01/06 19:40:08;;;;;;;;;;;2.50;99.90;;;;;;5018621;28;19948;-77
2024/01/06 19:42:36;;;;;;;;;;;2.50;99.90;;;;;;5018586;28;19933;-74
2024/01/06 19:45:03;;;;;;;;;;;2.50;99.90;;;;;;5018005;28;19933;-74
2024/01/06 19:47:30;;;;;;;;;;;2.50;99.90;;;;;;5018256;28;19925;-76
2024/01/06 19:49:57;;;;;;;;;;;2.50;99.90;;;;;;5018270;28;19926;-76
2024/01/06 19:52:24;;;;;;;;;;;2.50;99.90;;;;;;5018858;28;20001;-74
2024/01/06 19:54:52;;;;;;;;;;;2.50;99.90;;;;;;5018010;28;19926;-76
2024/01/06 19:57:19;;;;;;;;;;;2.60;99.90;;;;;;5017971;28;19930;-75
2024/01/06 19:59:47;;;;;;;;;;;2.60;99.90;;;;;;5019118;28;19933;-75
2024/01/06 20:02:14;;;;;;;;;;;2.50;99.90;;;;;;5018299;28;19925;-74
2024/01/06 20:04:40;;;;;;;;;;;2.50;99.90;;;;;;5018022;28;19925;-74
2024/01/06 20:07:07;;;;;;;;;;;2.50;99.90;;;;;;5017116;28;19968;-74
2024/01/06 20:09:34;;;;;;;;;;;2.50;99.90;;;;;;5017535;28;19925;-76
2024/01/06 20:12:02;;;;;;;;;;;2.50;99.90;;;;;;5017188;28;19933;-75
2024/01/06 20:14:28;;;;;;;;;;;2.50;99.90;;;;;;5016885;28;19929;-76
2024/01/06 20:16:55;;;;;;;;;;;2.50;99.90;;;;;;5017082;28;19925;-75
2024/01/06 20:19:23;;;;;;;;;;;2.50;99.90;;;;;;5017561;28;19940;-74
2024/01/06 20:21:50;;;;;;;;;;;2.50;99.90;;;;;;5017503;28;20333;-75
2024/01/06 20:24:17;;;;;;;;;;;2.50;99.90;;;;;;5017597;28;19972;-75
2024/01/06 20:26:43;;;;;;;;;;;2.50;99.90;;;;;;5017003;28;19926;-75
2024/01/06 20:29:12;;;;;;;;;;;2.50;99.90;;;;;;5016549;28;19929;-76
2024/01/06 20:31:38;;;;;;;;;;;2.50;99.90;;;;;;5018797;28;19926;-76
2024/01/06 20:34:05;;;;;;;;;;;2.50;99.90;;;;;;5019162;28;19926;-76
2024/01/06 20:36:31;;;;;;;;;;;2.50;99.90;;;;;;5018861;28;19925;-76
2024/01/06 20:38:58;;;;;;;;;;;2.50;99.90;;;;;;5018872;28;19932;-75
2024/01/06 20:41:24;;;;;;;;;;;2.50;99.90;;;;;;5018621;28;19925;-76
2024/01/06 20:43:51;;;;;;;;;;;2.50;99.90;;;;;;5019379;28;19932;-73
2024/01/06 20:46:21;;;;;;;;;;;2.40;99.90;;;;;;5017850;28;19925;-74
2024/01/06 20:48:48;;;;;;;;;;;2.50;99.90;;;;;;5018764;28;19944;-75
2024/01/06 20:51:18;;;;;;;;;;;2.40;99.90;;;;;;5021638;28;19926;-75
2024/01/06 20:53:44;;;;;;;;;;;2.40;99.90;;;;;;5033135;28;19948;-75
2024/01/06 20:56:13;;;;;;;;;;;2.40;99.90;;;;;;5036159;28;19926;-75
2024/01/06 20:58:39;;;;;;;;;;;2.40;99.90;;;;;;5036798;28;19916;-75
2024/01/06 21:01:06;;;;;;;;;;;2.40;99.90;;;;;;5030772;28;20294;-76
2024/01/06 21:03:35;;;;;;;;;;;2.40;99.90;;;;;;5020376;28;19925;-75
2024/01/06 21:06:01;;;;;;;;;;;2.40;99.90;;;;;;5017165;28;20028;-75
2024/01/06 21:08:28;;;;;;;;;;;2.40;99.90;;;;;;5019263;28;19925;-74
2024/01/06 21:10:54;;;;;;;;;;;2.40;99.90;;;;;;5016657;28;20315;-74